sensor_id;sensor_type;location;lat;lon;timestamp;pressure;altitude;pressure_sealevel;temperature;humidity
60319;BME280;46163;52.306;5.634;2023-09-19T00:00:01;100534.56;;;13.80;95.16
60319;BME280;46163;52.306;5.634;2023-09-19T00:02:29;100539.31;;;13.78;95.25
60319;BME280;46163;52.306;5.634;2023-09-19T00:04:54;100539.88;;;13.68;95.44
60319;BME280;46163;52.306;5.634;2023-09-19T00:07:20;100546.88;;;13.69;95.97
60319;BME280;46163;52.306;5.634;2023-09-19T00:09:49;100538.72;;;13.64;96.72
60319;BME280;46163;52.306;5.634;2023-09-19T00:12:14;100545.00;;;13.70;97.23
60319;BME280;46163;52.306;5.634;2023-09-19T00:14:40;100545.91;;;13.64;97.05
60319;BME280;46163;52.306;5.634;2023-09-19T00:17:05;100557.69;;;13.74;97.35
60319;BME280;46163;52.306;5.634;2023-09-19T00:19:35;100552.22;;;13.69;97.86
60319;BME280;46163;52.306;5.634;2023-09-19T00:22:01;100570.47;;;13.72;96.53
60319;BME280;46163;52.306;5.634;2023-09-19T00:24:28;100566.28;;;13.65;97.96
60319;BME280;46163;52.306;5.634;2023-09-19T00:26:53;100568.94;;;13.65;97.76
60319;BME280;46163;52.306;5.634;2023-09-19T00:29:21;100566.47;;;13.63;97.85
60319;BME280;46163;52.306;5.634;2023-09-19T00:31:49;100566.72;;;13.62;98.56
60319;BME280;46163;52.306;5.634;2023-09-19T00:34:17;100568.94;;;13.65;98.69
60319;BME280;46163;52.306;5.634;2023-09-19T00:36:43;100563.59;;;13.65;98.25
60319;BME280;46163;52.306;5.634;2023-09-19T00:39:09;100561.38;;;13.62;97.95
60319;BME280;46163;52.306;5.634;2023-09-19T00:41:35;100546.25;;;13.55;99.00
60319;BME280;46163;52.306;5.634;2023-09-19T00:44:02;100575.94;;;13.66;97.28
60319;BME280;46163;52.306;5.634;2023-09-19T00:46:32;100578.59;;;13.66;97.26
60319;BME280;46163;52.306;5.634;2023-09-19T00:48:58;100581.72;;;13.63;97.30
60319;BME280;46163;52.306;5.634;2023-09-19T00:51:26;100579.66;;;13.65;97.66
60319;BME280;46163;52.306;5.634;2023-09-19T00:53:53;100581.34;;;13.59;97.61
60319;BME280;46163;52.306;5.634;2023-09-19T00:56:19;100573.56;;;13.57;97.52
60319;BME280;46163;52.306;5.634;2023-09-19T00:58:46;100574.94;;;13.48;96.63
60319;BME280;46163;52.306;5.634;2023-09-19T01:01:16;100580.63;;;13.52;96.72
60319;BME280;46163;52.306;5.634;2023-09-19T01:03:43;100594.97;;;13.57;96.97
60319;BME280;46163;52.306;5.634;2023-09-19T01:06:21;100560.44;;;13.38;96.74
60319;BME280;46163;52.306;5.634;2023-09-19T01:08:46;100599.09;;;13.53;96.50
60319;BME280;46163;52.306;5.634;2023-09-19T01:11:20;100590.50;;;13.51;95.96
60319;BME280;46163;52.306;5.634;2023-09-19T01:16:35;100604.22;;;13.55;97.17
60319;BME280;46163;52.306;5.634;2023-09-19T01:19:19;100595.03;;;13.51;96.87
60319;BME280;46163;52.306;5.634;2023-09-19T01:25:19;100589.84;;;13.38;96.79
60319;BME280;46163;52.306;5.634;2023-09-19T01:30:32;100582.06;;;13.36;97.90
60319;BME280;46163;52.306;5.634;2023-09-19T01:33:02;100596.03;;;13.38;97.87
60319;BME280;46163;52.306;5.634;2023-09-19T01:35:29;100585.34;;;13.38;96.96
60319;BME280;46163;52.306;5.634;2023-09-19T01:37:54;100594.75;;;13.41;97.59
60319;BME280;46163;52.306;5.634;2023-09-19T01:40:21;100593.13;;;13.40;96.66
60319;BME280;46163;52.306;5.634;2023-09-19T01:43:12;100602.78;;;13.41;96.80
60319;BME280;46163;52.306;5.634;2023-09-19T01:51:02;100605.19;;;13.31;97.05
60319;BME280;46163;52.306;5.634;2023-09-19T01:53:40;100585.25;;;13.26;96.82
60319;BME280;46163;52.306;5.634;2023-09-19T01:56:08;100599.81;;;13.31;97.65
60319;BME280;46163;52.306;5.634;2023-09-19T01:58:42;100596.78;;;13.27;97.22
60319;BME280;46163;52.306;5.634;2023-09-19T02:01:12;100607.84;;;13.31;98.19
60319;BME280;46163;52.306;5.634;2023-09-19T02:03:41;100592.34;;;13.21;97.57
60319;BME280;46163;52.306;5.634;2023-09-19T02:06:17;100585.84;;;13.28;97.82
60319;BME280;46163;52.306;5.634;2023-09-19T02:08:43;100604.63;;;13.40;97.23
60319;BME280;46163;52.306;5.634;2023-09-19T02:11:13;100588.03;;;13.38;96.85
60319;BME280;46163;52.306;5.634;2023-09-19T02:13:39;100580.44;;;13.35;96.76
60319;BME280;46163;52.306;5.634;2023-09-19T02:16:06;100593.03;;;13.46;97.48
60319;BME280;46163;52.306;5.634;2023-09-19T02:18:32;100587.41;;;13.36;97.44
60319;BME280;46163;52.306;5.634;2023-09-19T02:21:01;100577.53;;;13.37;97.93
60319;BME280;46163;52.306;5.634;2023-09-19T02:23:26;100582.78;;;13.43;97.49
60319;BME280;46163;52.306;5.634;2023-09-19T02:25:55;100593.88;;;13.47;97.04
60319;BME280;46163;52.306;5.634;2023-09-19T02:28:23;100589.53;;;13.46;97.71
60319;BME280;46163;52.306;5.634;2023-09-19T02:30:49;100596.31;;;13.48;96.63
60319;BME280;46163;52.306;5.634;2023-09-19T02:33:15;100588.28;;;13.48;97.05
60319;BME280;46163;52.306;5.634;2023-09-19T02:35:42;100602.47;;;13.49;96.96
60319;BME280;46163;52.306;5.634;2023-09-19T02:38:08;100593.03;;;13.46;97.09
60319;BME280;46163;52.306;5.634;2023-09-19T02:40:36;100598.75;;;13.50;96.42
60319;BME280;46163;52.306;5.634;2023-09-19T02:43:04;100596.66;;;13.52;95.12
60319;BME280;46163;52.306;5.634;2023-09-19T02:45:30;100606.69;;;13.56;94.34
60319;BME280;46163;52.306;5.634;2023-09-19T02:47:59;100600.31;;;13.57;94.81
60319;BME280;46163;52.306;5.634;2023-09-19T02:50:25;100601.47;;;13.62;94.55
60319;BME280;46163;52.306;5.634;2023-09-19T02:52:51;100606.38;;;13.65;93.73
60319;BME280;46163;52.306;5.634;2023-09-19T02:55:18;100614.53;;;13.70;94.48
60319;BME280;46163;52.306;5.634;2023-09-19T02:57:52;100616.63;;;13.68;94.69
60319;BME280;46163;52.306;5.634;2023-09-19T03:00:20;100615.13;;;13.72;92.92
60319;BME280;46163;52.306;5.634;2023-09-19T03:02:48;100613.72;;;13.69;92.59
60319;BME280;46163;52.306;5.634;2023-09-19T03:05:14;100605.34;;;13.66;92.15
60319;BME280;46163;52.306;5.634;2023-09-19T03:07:40;100603.72;;;13.65;92.80
60319;BME280;46163;52.306;5.634;2023-09-19T03:10:08;100610.69;;;13.66;91.45
60319;BME280;46163;52.306;5.634;2023-09-19T03:12:34;100601.03;;;13.65;91.52
60319;BME280;46163;52.306;5.634;2023-09-19T03:15:00;100604.16;;;13.62;91.94
60319;BME280;46163;52.306;5.634;2023-09-19T03:17:26;100601.94;;;13.58;92.45
60319;BME280;46163;52.306;5.634;2023-09-19T03:19:51;100607.94;;;13.54;92.11
60319;BME280;46163;52.306;5.634;2023-09-19T03:22:17;100605.88;;;13.56;91.75
60319;BME280;46163;52.306;5.634;2023-09-19T03:24:43;100605.38;;;13.47;92.31
60319;BME280;46163;52.306;5.634;2023-09-19T03:27:12;100615.47;;;13.45;92.01
60319;BME280;46163;52.306;5.634;2023-09-19T03:29:41;100610.00;;;13.40;93.55
60319;BME280;46163;52.306;5.634;2023-09-19T03:32:07;100611.69;;;13.35;93.04
60319;BME280;46163;52.306;5.634;2023-09-19T03:34:36;100604.34;;;13.30;92.58
60319;BME280;46163;52.306;5.634;2023-09-19T03:37:02;100599.81;;;13.31;92.73
60319;BME280;46163;52.306;5.634;2023-09-19T03:39:29;100605.53;;;13.34;92.24
60319;BME280;46163;52.306;5.634;2023-09-19T03:41:54;100601.53;;;13.25;91.52
60319;BME280;46163;52.306;5.634;2023-09-19T03:44:20;100589.72;;;13.14;91.65
60319;BME280;46163;52.306;5.634;2023-09-19T03:46:45;100589.25;;;13.17;91.24
60319;BME280;46163;52.306;5.634;2023-09-19T03:49:10;100595.06;;;13.14;91.61
60319;BME280;46163;52.306;5.634;2023-09-19T03:51:36;100587.09;;;13.08;91.47
60319;BME280;46163;52.306;5.634;2023-09-19T03:54:02;100590.66;;;13.01;90.73
60319;BME280;46163;52.306;5.634;2023-09-19T03:56:31;100600.63;;;12.94;90.35
60319;BME280;46163;52.306;5.634;2023-09-19T03:58:56;100594.06;;;12.90;91.61
60319;BME280;46163;52.306;5.634;2023-09-19T04:01:22;100599.66;;;12.89;90.74
60319;BME280;46163;52.306;5.634;2023-09-19T04:03:47;100599.88;;;12.87;89.66
60319;BME280;46163;52.306;5.634;2023-09-19T04:06:16;100621.38;;;12.92;91.04
60319;BME280;46163;52.306;5.634;2023-09-19T04:08:43;100626.94;;;12.91;91.55
60319;BME280;46163;52.306;5.634;2023-09-19T04:11:09;100628.78;;;12.90;89.96
60319;BME280;46163;52.306;5.634;2023-09-19T04:13:36;100632.88;;;12.93;89.77
60319;BME280;46163;52.306;5.634;2023-09-19T04:16:02;100609.50;;;12.88;88.65
60319;BME280;46163;52.306;5.634;2023-09-19T04:18:29;100619.50;;;12.93;89.21
60319;BME280;46163;52.306;5.634;2023-09-19T04:20:59;100638.03;;;12.94;89.18
60319;BME280;46163;52.306;5.634;2023-09-19T04:23:27;100634.81;;;12.86;86.62
60319;BME280;46163;52.306;5.634;2023-09-19T04:25:53;100654.47;;;12.91;87.80
60319;BME280;46163;52.306;5.634;2023-09-19T04:28:19;100652.38;;;12.93;86.19
60319;BME280;46163;52.306;5.634;2023-09-19T04:30:44;100656.19;;;12.86;86.70
60319;BME280;46163;52.306;5.634;2023-09-19T04:33:10;100667.50;;;12.81;86.65
60319;BME280;46163;52.306;5.634;2023-09-19T04:35:37;100659.00;;;12.66;86.43
60319;BME280;46163;52.306;5.634;2023-09-19T04:38:04;100670.91;;;12.70;86.01
60319;BME280;46163;52.306;5.634;2023-09-19T04:40:32;100670.72;;;12.65;88.36
60319;BME280;46163;52.306;5.634;2023-09-19T04:42:59;100674.44;;;12.64;86.54
60319;BME280;46163;52.306;5.634;2023-09-19T04:45:28;100661.19;;;12.51;87.13
60319;BME280;46163;52.306;5.634;2023-09-19T04:47:54;100676.09;;;12.58;86.69
60319;BME280;46163;52.306;5.634;2023-09-19T04:50:20;100669.38;;;12.56;86.49
60319;BME280;46163;52.306;5.634;2023-09-19T04:52:52;100659.94;;;12.53;87.33
60319;BME280;46163;52.306;5.634;2023-09-19T04:55:19;100662.84;;;12.52;88.30
60319;BME280;46163;52.306;5.634;2023-09-19T04:57:50;100661.81;;;12.53;85.86
60319;BME280;46163;52.306;5.634;2023-09-19T05:00:19;100670.69;;;12.71;85.43
60319;BME280;46163;52.306;5.634;2023-09-19T05:02:52;100658.69;;;12.56;86.48
60319;BME280;46163;52.306;5.634;2023-09-19T05:05:18;100660.16;;;12.52;86.84
60319;BME280;46163;52.306;5.634;2023-09-19T05:07:44;100662.06;;;12.44;86.89
60319;BME280;46163;52.306;5.634;2023-09-19T05:10:10;100661.63;;;12.48;88.18
60319;BME280;46163;52.306;5.634;2023-09-19T05:12:37;100668.00;;;12.47;86.62
60319;BME280;46163;52.306;5.634;2023-09-19T05:15:05;100671.09;;;12.43;87.73
60319;BME280;46163;52.306;5.634;2023-09-19T05:17:35;100663.28;;;12.42;86.33
60319;BME280;46163;52.306;5.634;2023-09-19T05:20:01;100680.91;;;12.50;86.07
60319;BME280;46163;52.306;5.634;2023-09-19T05:22:41;100678.09;;;12.44;86.20
60319;BME280;46163;52.306;5.634;2023-09-19T05:25:07;100680.00;;;12.62;85.20
60319;BME280;46163;52.306;5.634;2023-09-19T05:27:33;100669.00;;;12.52;86.36
60319;BME280;46163;52.306;5.634;2023-09-19T05:29:59;100660.16;;;12.52;86.68
60319;BME280;46163;52.306;5.634;2023-09-19T05:32:25;100651.75;;;12.48;85.30
60319;BME280;46163;52.306;5.634;2023-09-19T05:34:50;100673.28;;;12.53;85.64
60319;BME280;46163;52.306;5.634;2023-09-19T05:37:21;100665.69;;;12.50;86.94
60319;BME280;46163;52.306;5.634;2023-09-19T05:39:46;100667.06;;;12.59;84.85
60319;BME280;46163;52.306;5.634;2023-09-19T05:42:12;100652.75;;;12.54;86.77
60319;BME280;46163;52.306;5.634;2023-09-19T05:44:37;100662.56;;;12.60;86.31
60319;BME280;46163;52.306;5.634;2023-09-19T05:47:03;100672.41;;;12.59;85.82
60319;BME280;46163;52.306;5.634;2023-09-19T05:49:29;100680.03;;;12.56;85.67
60319;BME280;46163;52.306;5.634;2023-09-19T05:51:54;100677.38;;;12.56;85.81
60319;BME280;46163;52.306;5.634;2023-09-19T05:54:22;100681.91;;;12.55;86.77
60319;BME280;46163;52.306;5.634;2023-09-19T05:56:48;100698.13;;;12.54;87.57
60319;BME280;46163;52.306;5.634;2023-09-19T05:59:19;100697.31;;;12.53;86.39
60319;BME280;46163;52.306;5.634;2023-09-19T06:01:44;100689.69;;;12.57;87.49
60319;BME280;46163;52.306;5.634;2023-09-19T06:04:11;100686.78;;;12.58;86.11
60319;BME280;46163;52.306;5.634;2023-09-19T06:06:36;100705.69;;;12.57;87.08
60319;BME280;46163;52.306;5.634;2023-09-19T06:09:07;100703.44;;;12.60;86.98
60319;BME280;46163;52.306;5.634;2023-09-19T06:11:36;100699.50;;;12.63;86.72
60319;BME280;46163;52.306;5.634;2023-09-19T06:14:03;100693.94;;;12.64;86.20
60319;BME280;46163;52.306;5.634;2023-09-19T06:16:29;100691.94;;;12.60;87.16
60319;BME280;46163;52.306;5.634;2023-09-19T06:18:55;100696.25;;;12.61;87.81
60319;BME280;46163;52.306;5.634;2023-09-19T06:21:24;100708.53;;;12.62;86.92
60319;BME280;46163;52.306;5.634;2023-09-19T06:23:49;100703.22;;;12.62;86.95
60319;BME280;46163;52.306;5.634;2023-09-19T06:26:15;100692.69;;;12.67;86.76
60319;BME280;46163;52.306;5.634;2023-09-19T06:28:40;100707.34;;;12.83;85.78
60319;BME280;46163;52.306;5.634;2023-09-19T06:31:10;100698.84;;;12.92;85.74
60319;BME280;46163;52.306;5.634;2023-09-19T06:33:36;100699.75;;;13.05;85.64
60319;BME280;46163;52.306;5.634;2023-09-19T06:36:10;100682.91;;;13.04;84.88
60319;BME280;46163;52.306;5.634;2023-09-19T06:38:36;100679.28;;;13.17;84.63
60319;BME280;46163;52.306;5.634;2023-09-19T06:41:02;100689.78;;;13.37;85.38
60319;BME280;46163;52.306;5.634;2023-09-19T06:43:32;100680.06;;;13.42;84.17
60319;BME280;46163;52.306;5.634;2023-09-19T06:46:01;100674.19;;;13.52;84.19
60319;BME280;46163;52.306;5.634;2023-09-19T06:48:27;100678.88;;;13.56;83.30
60319;BME280;46163;52.306;5.634;2023-09-19T06:50:56;100685.78;;;13.64;83.54
60319;BME280;46163;52.306;5.634;2023-09-19T06:53:26;100684.38;;;13.62;83.31
60319;BME280;46163;52.306;5.634;2023-09-19T06:55:51;100695.00;;;13.68;83.51
60319;BME280;46163;52.306;5.634;2023-09-19T06:58:17;100690.16;;;13.77;82.44
60319;BME280;46163;52.306;5.634;2023-09-19T07:00:44;100691.66;;;13.73;84.22
60319;BME280;46163;52.306;5.634;2023-09-19T07:03:13;100681.09;;;13.78;83.06
60319;BME280;46163;52.306;5.634;2023-09-19T07:05:41;100689.69;;;13.80;83.59
60319;BME280;46163;52.306;5.634;2023-09-19T07:08:09;100684.41;;;13.92;83.43
60319;BME280;46163;52.306;5.634;2023-09-19T07:10:41;100699.63;;;14.09;83.28
60319;BME280;46163;52.306;5.634;2023-09-19T07:13:13;100706.44;;;14.05;82.52
60319;BME280;46163;52.306;5.634;2023-09-19T07:15:39;100697.97;;;14.08;83.20
60319;BME280;46163;52.306;5.634;2023-09-19T07:18:11;100703.22;;;14.15;82.70
60319;BME280;46163;52.306;5.634;2023-09-19T07:20:38;100717.06;;;14.12;83.05
60319;BME280;46163;52.306;5.634;2023-09-19T07:23:03;100695.19;;;14.15;83.02
60319;BME280;46163;52.306;5.634;2023-09-19T07:25:29;100726.44;;;14.33;82.89
60319;BME280;46163;52.306;5.634;2023-09-19T07:27:56;100708.59;;;14.45;82.35
60319;BME280;46163;52.306;5.634;2023-09-19T07:30:21;100733.81;;;14.91;81.04
60319;BME280;46163;52.306;5.634;2023-09-19T07:32:47;100733.81;;;15.03;79.98
60319;BME280;46163;52.306;5.634;2023-09-19T07:35:13;100730.59;;;15.12;78.78
60319;BME280;46163;52.306;5.634;2023-09-19T07:37:40;100745.16;;;15.40;78.26
60319;BME280;46163;52.306;5.634;2023-09-19T07:40:06;100726.59;;;15.50;77.10
60319;BME280;46163;52.306;5.634;2023-09-19T07:42:36;100719.81;;;15.71;76.46
60319;BME280;46163;52.306;5.634;2023-09-19T07:45:04;100730.50;;;16.23;74.40
60319;BME280;46163;52.306;5.634;2023-09-19T07:47:30;100720.13;;;16.43;73.61
60319;BME280;46163;52.306;5.634;2023-09-19T07:49:58;100728.16;;;16.88;71.54
60319;BME280;46163;52.306;5.634;2023-09-19T07:52:24;100724.47;;;16.61;72.49
60319;BME280;46163;52.306;5.634;2023-09-19T07:54:53;100724.25;;;17.13;72.46
60319;BME280;46163;52.306;5.634;2023-09-19T07:57:18;100719.81;;;17.23;70.06
60319;BME280;46163;52.306;5.634;2023-09-19T07:59:45;100727.25;;;17.55;68.70
60319;BME280;46163;52.306;5.634;2023-09-19T08:02:11;100730.41;;;17.30;68.45
60319;BME280;46163;52.306;5.634;2023-09-19T08:04:42;100729.09;;;18.47;65.96
60319;BME280;46163;52.306;5.634;2023-09-19T08:07:10;100720.75;;;19.55;63.26
60319;BME280;46163;52.306;5.634;2023-09-19T08:09:36;100718.91;;;20.54;58.50
60319;BME280;46163;52.306;5.634;2023-09-19T08:12:05;100720.22;;;21.02;57.43
60319;BME280;46163;52.306;5.634;2023-09-19T08:14:30;100706.75;;;19.63;60.12
60319;BME280;46163;52.306;5.634;2023-09-19T08:16:57;100722.75;;;19.80;60.89
60319;BME280;46163;52.306;5.634;2023-09-19T08:19:24;100739.06;;;19.06;62.14
60319;BME280;46163;52.306;5.634;2023-09-19T08:21:55;100730.53;;;19.71;60.88
60319;BME280;46163;52.306;5.634;2023-09-19T08:24:27;100740.53;;;20.54;58.68
60319;BME280;46163;52.306;5.634;2023-09-19T08:26:57;100733.91;;;21.67;55.98
60319;BME280;46163;52.306;5.634;2023-09-19T08:29:24;100729.72;;;20.44;58.26
60319;BME280;46163;52.306;5.634;2023-09-19T08:31:59;100720.16;;;20.21;59.35
60319;BME280;46163;52.306;5.634;2023-09-19T08:34:25;100736.13;;;20.27;58.94
60319;BME280;46163;52.306;5.634;2023-09-19T08:36:54;100737.44;;;19.47;61.83
60319;BME280;46163;52.306;5.634;2023-09-19T08:39:24;100717.19;;;19.02;62.61
60319;BME280;46163;52.306;5.634;2023-09-19T08:42:00;100720.56;;;19.25;62.18
60319;BME280;46163;52.306;5.634;2023-09-19T08:44:26;100725.78;;;18.99;62.88
60319;BME280;46163;52.306;5.634;2023-09-19T08:47:03;100714.19;;;18.99;62.94
60319;BME280;46163;52.306;5.634;2023-09-19T08:49:49;100719.09;;;19.07;63.72
60319;BME280;46163;52.306;5.634;2023-09-19T08:52:29;100719.22;;;18.85;63.56
60319;BME280;46163;52.306;5.634;2023-09-19T08:55:01;100718.13;;;18.54;64.28
60319;BME280;46163;52.306;5.634;2023-09-19T08:57:33;100704.88;;;19.69;61.78
60319;BME280;46163;52.306;5.634;2023-09-19T09:00:02;100716.72;;;19.58;60.81
60319;BME280;46163;52.306;5.634;2023-09-19T09:02:37;100723.09;;;20.04;60.32
60319;BME280;46163;52.306;5.634;2023-09-19T09:05:09;100720.66;;;19.40;62.08
60319;BME280;46163;52.306;5.634;2023-09-19T09:07:38;100729.19;;;19.22;64.35
60319;BME280;46163;52.306;5.634;2023-09-19T09:10:06;100726.81;;;19.35;62.23
60319;BME280;46163;52.306;5.634;2023-09-19T09:12:37;100715.47;;;18.86;64.49
60319;BME280;46163;52.306;5.634;2023-09-19T09:15:06;100727.09;;;19.34;62.36
60319;BME280;46163;52.306;5.634;2023-09-19T09:17:34;100725.84;;;20.09;61.48
60319;BME280;46163;52.306;5.634;2023-09-19T09:20:00;100727.84;;;19.71;62.51
60319;BME280;46163;52.306;5.634;2023-09-19T09:22:25;100707.00;;;20.65;57.99
60319;BME280;46163;52.306;5.634;2023-09-19T09:24:57;100718.22;;;21.64;57.05
60319;BME280;46163;52.306;5.634;2023-09-19T09:27:30;100707.53;;;20.98;55.72
60319;BME280;46163;52.306;5.634;2023-09-19T09:29:57;100715.03;;;21.47;56.67
60319;BME280;46163;52.306;5.634;2023-09-19T09:32:30;100718.00;;;20.13;59.69
60319;BME280;46163;52.306;5.634;2023-09-19T09:35:07;100710.66;;;19.98;61.45
60319;BME280;46163;52.306;5.634;2023-09-19T09:37:38;100697.75;;;20.25;60.38
60319;BME280;46163;52.306;5.634;2023-09-19T09:40:12;100695.00;;;19.90;60.56
60319;BME280;46163;52.306;5.634;2023-09-19T09:42:41;100716.88;;;19.41;62.90
60319;BME280;46163;52.306;5.634;2023-09-19T09:45:17;100718.78;;;18.98;64.98
60319;BME280;46163;52.306;5.634;2023-09-19T09:47:46;100705.09;;;18.73;63.87
60319;BME280;46163;52.306;5.634;2023-09-19T09:50:30;100688.53;;;18.32;64.86
60319;BME280;46163;52.306;5.634;2023-09-19T09:53:34;100713.41;;;18.12;67.42
60319;BME280;46163;52.306;5.634;2023-09-19T09:56:07;100721.66;;;17.62;66.94
60319;BME280;46163;52.306;5.634;2023-09-19T09:58:37;100714.03;;;17.53;68.23
60319;BME280;46163;52.306;5.634;2023-09-19T10:01:05;100720.59;;;17.41;68.20
60319;BME280;46163;52.306;5.634;2023-09-19T10:03:43;100705.25;;;17.63;68.61
60319;BME280;46163;52.306;5.634;2023-09-19T10:06:14;100702.66;;;17.46;68.10
60319;BME280;46163;52.306;5.634;2023-09-19T10:11:28;100684.47;;;17.15;68.71
60319;BME280;46163;52.306;5.634;2023-09-19T10:13:56;100679.59;;;17.34;68.67
60319;BME280;46163;52.306;5.634;2023-09-19T10:16:23;100688.44;;;17.51;68.32
60319;BME280;46163;52.306;5.634;2023-09-19T10:18:51;100675.91;;;17.18;69.50
60319;BME280;46163;52.306;5.634;2023-09-19T10:21:23;100687.56;;;17.07;69.33
60319;BME280;46163;52.306;5.634;2023-09-19T10:23:50;100683.13;;;16.95;70.07
60319;BME280;46163;52.306;5.634;2023-09-19T10:26:18;100700.59;;;17.15;70.04
60319;BME280;46163;52.306;5.634;2023-09-19T10:28:46;100694.41;;;17.14;70.84
60319;BME280;46163;52.306;5.634;2023-09-19T10:31:19;100689.59;;;17.16;69.29
60319;BME280;46163;52.306;5.634;2023-09-19T10:33:47;100690.66;;;17.15;69.01
60319;BME280;46163;52.306;5.634;2023-09-19T10:36:14;100689.56;;;17.33;69.09
60319;BME280;46163;52.306;5.634;2023-09-19T10:38:43;100674.19;;;17.50;69.32
60319;BME280;46163;52.306;5.634;2023-09-19T10:41:14;100653.31;;;17.63;68.49
60319;BME280;46163;52.306;5.634;2023-09-19T10:43:42;100640.16;;;17.83;65.74
60319;BME280;46163;52.306;5.634;2023-09-19T10:46:14;100650.09;;;18.42;66.57
60319;BME280;46163;52.306;5.634;2023-09-19T10:48:41;100650.88;;;18.37;65.54
60319;BME280;46163;52.306;5.634;2023-09-19T10:51:11;100646.00;;;18.66;64.77
60319;BME280;46163;52.306;5.634;2023-09-19T10:53:51;100645.28;;;18.76;64.58
60319;BME280;46163;52.306;5.634;2023-09-19T10:56:33;100653.09;;;18.45;63.67
60319;BME280;46163;52.306;5.634;2023-09-19T10:59:13;100627.22;;;18.76;63.04
60319;BME280;46163;52.306;5.634;2023-09-19T11:09:50;100642.88;;;18.47;65.34
60319;BME280;46163;52.306;5.634;2023-09-19T11:15:07;100662.84;;;17.92;66.07
60319;BME280;46163;52.306;5.634;2023-09-19T11:30:50;100625.88;;;18.10;66.64
60319;BME280;46163;52.306;5.634;2023-09-19T11:36:00;100600.38;;;17.90;66.30
60319;BME280;46163;52.306;5.634;2023-09-19T11:43:45;100629.56;;;17.76;69.27
60319;BME280;46163;52.306;5.634;2023-09-19T11:46:12;100613.06;;;17.95;68.24
60319;BME280;46163;52.306;5.634;2023-09-19T11:48:42;100628.19;;;17.74;67.98
60319;BME280;46163;52.306;5.634;2023-09-19T11:51:13;100621.44;;;17.71;67.43
60319;BME280;46163;52.306;5.634;2023-09-19T11:53:50;100627.69;;;17.77;68.84
60319;BME280;46163;52.306;5.634;2023-09-19T11:56:23;100617.81;;;17.88;66.40
60319;BME280;46163;52.306;5.634;2023-09-19T11:58:55;100617.41;;;18.28;66.67
60319;BME280;46163;52.306;5.634;2023-09-19T12:01:29;100623.88;;;18.32;66.50
60319;BME280;46163;52.306;5.634;2023-09-19T12:03:59;100620.38;;;18.31;65.99
60319;BME280;46163;52.306;5.634;2023-09-19T12:06:26;100618.50;;;18.32;66.10
60319;BME280;46163;52.306;5.634;2023-09-19T12:08:53;100619.84;;;18.29;65.97
60319;BME280;46163;52.306;5.634;2023-09-19T12:11:30;100638.44;;;18.31;68.39
60319;BME280;46163;52.306;5.634;2023-09-19T12:14:03;100607.16;;;18.25;65.91
60319;BME280;46163;52.306;5.634;2023-09-19T12:16:29;100632.94;;;18.16;65.74
60319;BME280;46163;52.306;5.634;2023-09-19T12:19:17;100592.88;;;18.24;64.80
60319;BME280;46163;52.306;5.634;2023-09-19T12:21:59;100604.56;;;18.40;66.37
60319;BME280;46163;52.306;5.634;2023-09-19T12:24:26;100608.63;;;18.43;65.50
60319;BME280;46163;52.306;5.634;2023-09-19T12:26:59;100602.59;;;18.30;64.69
60319;BME280;46163;52.306;5.634;2023-09-19T12:29:30;100622.19;;;18.21;65.88
60319;BME280;46163;52.306;5.634;2023-09-19T12:31:59;100595.91;;;18.06;65.60
60319;BME280;46163;52.306;5.634;2023-09-19T12:34:30;100613.03;;;18.22;66.14
60319;BME280;46163;52.306;5.634;2023-09-19T12:37:06;100604.34;;;18.15;65.21
60319;BME280;46163;52.306;5.634;2023-09-19T12:39:43;100606.47;;;18.07;65.53
60319;BME280;46163;52.306;5.634;2023-09-19T12:42:14;100616.16;;;18.08;66.88
60319;BME280;46163;52.306;5.634;2023-09-19T12:44:44;100608.09;;;18.08;66.06
60319;BME280;46163;52.306;5.634;2023-09-19T12:47:18;100597.91;;;17.89;65.73
60319;BME280;46163;52.306;5.634;2023-09-19T12:50:11;100616.53;;;17.90;66.33
60319;BME280;46163;52.306;5.634;2023-09-19T12:52:49;100602.00;;;17.91;66.85
60319;BME280;46163;52.306;5.634;2023-09-19T12:55:31;100607.69;;;17.95;66.17
60319;BME280;46163;52.306;5.634;2023-09-19T12:58:14;100615.50;;;17.96;66.37
60319;BME280;46163;52.306;5.634;2023-09-19T13:00:46;100605.16;;;17.83;66.67
60319;BME280;46163;52.306;5.634;2023-09-19T13:03:18;100621.66;;;17.92;67.58
60319;BME280;46163;52.306;5.634;2023-09-19T13:05:57;100624.72;;;18.05;66.79
60319;BME280;46163;52.306;5.634;2023-09-19T13:11:14;100602.13;;;18.39;66.54
60319;BME280;46163;52.306;5.634;2023-09-19T13:17:03;100607.44;;;18.28;66.84
60319;BME280;46163;52.306;5.634;2023-09-19T13:19:39;100623.16;;;18.42;67.35
60319;BME280;46163;52.306;5.634;2023-09-19T13:22:40;100623.31;;;18.25;66.47
60319;BME280;46163;52.306;5.634;2023-09-19T13:25:16;100621.28;;;18.10;67.06
60319;BME280;46163;52.306;5.634;2023-09-19T13:27:54;100608.00;;;17.98;67.93
60319;BME280;46163;52.306;5.634;2023-09-19T13:30:25;100621.22;;;18.05;69.05
60319;BME280;46163;52.306;5.634;2023-09-19T13:32:51;100627.06;;;17.97;67.64
60319;BME280;46163;52.306;5.634;2023-09-19T13:35:18;100623.47;;;17.86;68.21
60319;BME280;46163;52.306;5.634;2023-09-19T13:37:47;100625.25;;;18.02;69.45
60319;BME280;46163;52.306;5.634;2023-09-19T13:40:15;100620.78;;;18.13;68.16
60319;BME280;46163;52.306;5.634;2023-09-19T13:42:41;100616.19;;;18.14;68.46
60319;BME280;46163;52.306;5.634;2023-09-19T13:45:07;100612.53;;;18.25;69.33
60319;BME280;46163;52.306;5.634;2023-09-19T13:47:38;100627.84;;;18.19;68.83
60319;BME280;46163;52.306;5.634;2023-09-19T13:50:04;100620.66;;;18.30;68.31
60319;BME280;46163;52.306;5.634;2023-09-19T13:52:31;100615.78;;;18.27;68.35
60319;BME280;46163;52.306;5.634;2023-09-19T13:54:57;100608.91;;;18.09;68.76